Bingham, Maine
Current Conditions -  °F | °C
As of 2:35 AM on Saturday 29 Nov 2014 (Local Time) from KWVL Reporting Station
Clear Clear  
Wind Chill:   Ceiling: Unl
Heat Index: 16°   Visibility: 10mi
Dew Point:   Wind: 5mph
Humidity: 73%   Direction: 230°SW
Pressure: 30.14"   Gusts: NA
Location:  45.06°N, 69.88°W
Report Text: KWVL 290735Z 23004KT 10SM CLR M09/M13 A3014 RMK AO1
Loading
Personal Weather Stations






























Interactive Weather Map New forecast layout! Learn more

10-Day Weather Forecast

Advertisements
Track Severe Weather on mobile